createdAt,value
2022-11-20T00:01:44.331Z,8.87
2022-11-20T00:04:13.900Z,9.30
2022-11-20T00:06:42.935Z,8.97
2022-11-20T00:09:13.558Z,9.87
2022-11-20T00:11:42.293Z,8.63
2022-11-20T00:14:12.758Z,10.13
2022-11-20T00:16:41.505Z,10.90
2022-11-20T00:19:10.288Z,9.80
2022-11-20T00:21:39.067Z,10.70
2022-11-20T00:24:12.891Z,10.60
2022-11-20T00:26:41.681Z,10.10
2022-11-20T00:29:12.285Z,10.83
2022-11-20T00:31:41.072Z,10.60
2022-11-20T00:34:09.828Z,10.73
2022-11-20T00:36:38.589Z,10.10
2022-11-20T00:39:07.501Z,9.60
2022-11-20T00:41:38.118Z,9.60
2022-11-20T00:44:07.488Z,9.47
2022-11-20T00:46:36.635Z,9.17
2022-11-20T00:49:05.366Z,9.80
2022-11-20T00:51:34.135Z,8.80
2022-11-20T00:54:03.196Z,9.43
2022-11-20T00:56:31.947Z,10.27
2022-11-20T00:59:03.179Z,10.10
2022-11-20T01:01:32.481Z,8.67
2022-11-20T01:04:02.872Z,9.63
2022-11-20T01:06:34.531Z,9.73
2022-11-20T01:09:08.301Z,9.30
2022-11-20T01:11:39.873Z,8.47
2022-11-20T01:14:14.613Z,8.43
2022-11-20T01:16:46.318Z,9.13
2022-11-20T01:19:18.953Z,8.50
2022-11-20T01:21:50.964Z,7.77
2022-11-20T01:24:23.197Z,7.13
2022-11-20T01:26:53.601Z,6.50
2022-11-20T01:29:26.503Z,7.07
2022-11-20T01:31:56.417Z,6.30
2022-11-20T01:34:26.047Z,7.30
2022-11-20T01:36:55.841Z,7.30
2022-11-20T01:39:28.340Z,6.87
2022-11-20T01:42:15.533Z,7.00
2022-11-20T01:44:56.336Z,7.00
2022-11-20T01:47:34.419Z,7.13
2022-11-20T01:50:13.945Z,6.87
2022-11-20T01:52:51.789Z,7.03
2022-11-20T01:55:27.888Z,7.23
2022-11-20T01:57:58.194Z,7.23
2022-11-20T02:00:28.448Z,7.07
2022-11-20T02:03:00.875Z,6.67
2022-11-20T02:05:39.305Z,6.23
2022-11-20T02:08:09.039Z,7.63
2022-11-20T02:10:38.110Z,7.10
2022-11-20T02:13:25.067Z,7.00
2022-11-20T02:15:55.877Z,6.50
2022-11-20T02:18:26.144Z,6.90
2022-11-20T02:21:04.267Z,6.97
2022-11-20T02:23:41.180Z,5.77
2022-11-20T02:26:16.607Z,5.90
2022-11-20T02:28:45.291Z,5.90
2022-11-20T02:31:14.057Z,6.23
2022-11-20T02:33:42.725Z,6.23
2022-11-20T02:36:18.497Z,6.27
2022-11-20T02:38:47.569Z,6.80
2022-11-20T02:41:17.686Z,6.80
2022-11-20T02:43:46.870Z,6.47
2022-11-20T02:46:15.862Z,6.70
2022-11-20T02:48:44.551Z,7.50
2022-11-20T02:51:13.278Z,6.53
2022-11-20T02:53:42.197Z,6.70
2022-11-20T02:56:10.918Z,5.87
2022-11-20T02:58:41.029Z,6.13
2022-11-20T03:01:09.956Z,6.37
2022-11-20T03:03:38.794Z,5.83
2022-11-20T03:06:08.748Z,6.30
2022-11-20T03:08:37.851Z,6.30
2022-11-20T03:11:09.098Z,5.60
2022-11-20T03:13:38.296Z,6.33
2022-11-20T03:16:24.520Z,5.87
2022-11-20T03:18:55.573Z,5.77
2022-11-20T03:21:24.395Z,6.63
2022-11-20T03:23:53.072Z,6.13
2022-11-20T03:26:24.308Z,5.50
2022-11-20T03:28:56.011Z,5.90
2022-11-20T03:31:29.554Z,6.80
2022-11-20T03:34:00.218Z,5.63
2022-11-20T03:36:30.152Z,5.77
2022-11-20T03:38:59.805Z,5.60
2022-11-20T03:41:31.169Z,5.57
2022-11-20T03:44:03.558Z,5.60
2022-11-20T03:46:34.254Z,5.40
2022-11-20T03:49:03.472Z,5.50
2022-11-20T03:51:34.671Z,5.57
2022-11-20T03:54:05.928Z,6.07
2022-11-20T03:56:37.815Z,5.43
2022-11-20T03:59:07.534Z,5.67
2022-11-20T04:01:39.180Z,5.00
2022-11-20T04:04:08.124Z,5.47
2022-11-20T04:06:39.896Z,5.57
2022-11-20T04:09:09.323Z,5.27
2022-11-20T04:11:41.994Z,5.50
2022-11-20T04:14:17.688Z,5.70
2022-11-20T04:16:47.788Z,5.50
2022-11-20T04:19:19.034Z,5.00
2022-11-20T04:21:48.183Z,4.63
2022-11-20T04:24:16.983Z,5.40
2022-11-20T04:26:45.715Z,5.57
2022-11-20T04:29:14.984Z,4.93
2022-11-20T04:31:43.758Z,5.20
2022-11-20T04:34:14.985Z,4.87
2022-11-20T04:36:43.693Z,5.07
2022-11-20T04:39:17.937Z,5.53
2022-11-20T04:41:47.196Z,5.50
2022-11-20T04:44:16.047Z,5.43
2022-11-20T04:46:45.329Z,5.47
2022-11-20T04:49:15.953Z,5.03
2022-11-20T04:51:44.807Z,5.50
2022-11-20T04:54:14.689Z,4.83
2022-11-20T04:56:44.138Z,4.97
2022-11-20T04:59:13.661Z,4.90
2022-11-20T05:01:42.889Z,5.00
2022-11-20T05:04:11.678Z,4.53
2022-11-20T05:06:41.802Z,5.10
2022-11-20T05:09:10.696Z,4.70
2022-11-20T05:11:39.589Z,5.03
2022-11-20T05:14:08.418Z,5.37
2022-11-20T05:16:37.776Z,4.70
2022-11-20T05:19:06.536Z,5.37
2022-11-20T05:21:35.270Z,4.70
2022-11-20T05:24:07.062Z,5.20
2022-11-20T05:26:37.123Z,4.83
2022-11-20T05:29:05.828Z,4.50
2022-11-20T05:31:34.829Z,4.60
2022-11-20T05:34:04.425Z,5.03
2022-11-20T05:36:33.859Z,8.13
2022-11-20T05:39:04.529Z,11.57
2022-11-20T05:41:35.073Z,10.57
2022-11-20T05:44:04.241Z,7.83
2022-11-20T05:46:33.152Z,6.60
2022-11-20T05:49:02.214Z,6.07
2022-11-20T05:51:31.163Z,5.10
2022-11-20T05:54:00.334Z,4.93
2022-11-20T05:56:30.796Z,5.27
2022-11-20T05:58:59.568Z,4.63
2022-11-20T06:01:28.750Z,4.67
2022-11-20T06:03:57.568Z,5.20
2022-11-20T06:06:27.026Z,4.80
2022-11-20T06:08:56.742Z,4.30
2022-11-20T06:11:25.436Z,4.20
2022-11-20T06:13:55.592Z,4.60
2022-11-20T06:16:24.797Z,4.70
2022-11-20T06:18:53.645Z,4.80
2022-11-20T06:21:24.984Z,4.63
2022-11-20T06:23:55.898Z,5.03
2022-11-20T06:26:28.641Z,3.80
2022-11-20T06:28:59.698Z,4.40
2022-11-20T06:31:30.575Z,4.10
2022-11-20T06:33:59.837Z,4.60
2022-11-20T06:36:29.185Z,4.40
2022-11-20T06:38:59.024Z,4.10
2022-11-20T06:41:30.081Z,4.47
2022-11-20T06:44:00.722Z,4.30
2022-11-20T06:46:29.658Z,4.17
2022-11-20T06:48:59.358Z,4.37
2022-11-20T06:51:28.168Z,4.17
2022-11-20T06:53:57.077Z,4.10
2022-11-20T06:56:25.973Z,3.83
2022-11-20T06:58:54.681Z,4.57
2022-11-20T07:01:25.466Z,4.53
2022-11-20T07:03:54.724Z,19.73
2022-11-20T07:06:23.848Z,28.40
2022-11-20T07:08:54.448Z,11.93
2022-11-20T07:11:23.239Z,7.93
2022-11-20T07:13:52.219Z,33.23
2022-11-20T07:16:21.019Z,17.47
2022-11-20T07:18:51.393Z,13.53
2022-11-20T07:21:22.136Z,16.83
2022-11-20T07:23:51.048Z,38.87
2022-11-20T07:26:20.433Z,52.47
2022-11-20T07:28:49.180Z,10.57
2022-11-20T07:31:19.665Z,9.57
2022-11-20T07:33:51.035Z,6.37
2022-11-20T07:36:23.079Z,6.37
2022-11-20T07:38:53.678Z,8.70
2022-11-20T07:41:22.921Z,6.50
2022-11-20T07:43:52.404Z,7.13
2022-11-20T07:46:22.298Z,6.97
2022-11-20T07:48:52.453Z,13.57
2022-11-20T07:51:21.280Z,17.20
2022-11-20T07:53:52.543Z,19.57
2022-11-20T07:56:21.373Z,20.83
2022-11-20T07:58:50.142Z,18.53
2022-11-20T08:01:18.878Z,19.67
2022-11-20T08:03:48.093Z,9.73
2022-11-20T08:06:19.636Z,6.30
2022-11-20T08:08:49.152Z,5.43
2022-11-20T08:11:35.949Z,5.57
2022-11-20T08:14:16.917Z,6.00
2022-11-20T08:16:48.113Z,5.47
2022-11-20T08:19:20.827Z,7.00
2022-11-20T08:21:51.413Z,7.27
2022-11-20T08:24:20.214Z,8.50
2022-11-20T08:26:49.171Z,10.53
2022-11-20T08:29:18.090Z,10.23
2022-11-20T08:31:47.907Z,9.07
2022-11-20T08:34:19.149Z,6.80
2022-11-20T08:36:48.413Z,7.13
2022-11-20T08:39:18.882Z,6.50
2022-11-20T08:41:47.692Z,6.00
2022-11-20T08:44:16.882Z,7.30
2022-11-20T08:46:46.836Z,6.93
2022-11-20T08:49:16.964Z,7.17
2022-11-20T08:51:46.117Z,7.40
2022-11-20T08:54:16.724Z,7.40
2022-11-20T08:56:47.067Z,7.13
2022-11-20T08:59:43.473Z,9.87
2022-11-20T09:02:05.165Z,7.57
2022-11-20T09:04:34.025Z,7.70
2022-11-20T09:07:03.416Z,8.53
2022-11-20T09:09:32.183Z,7.97
2022-11-20T09:12:02.614Z,8.07
2022-11-20T09:14:31.464Z,9.37
2022-11-20T09:17:00.303Z,9.83
2022-11-20T09:19:36.713Z,10.50
2022-11-20T09:22:05.646Z,10.60
2022-11-20T09:24:34.930Z,11.50
2022-11-20T09:27:08.555Z,10.83
2022-11-20T09:29:37.387Z,9.73
2022-11-20T09:32:07.096Z,9.73
2022-11-20T09:34:35.832Z,10.00
2022-11-20T09:37:07.610Z,9.27
2022-11-20T09:39:40.017Z,9.43
2022-11-20T09:42:34.627Z,9.43
2022-11-20T09:45:21.017Z,9.10
2022-11-20T09:48:08.079Z,8.57
2022-11-20T09:50:48.862Z,9.57
2022-11-20T09:53:30.533Z,9.53
2022-11-20T09:56:02.140Z,10.03
2022-11-20T09:58:41.374Z,10.37
2022-11-20T10:01:16.379Z,11.00
2022-11-20T10:03:58.272Z,10.23
2022-11-20T10:06:34.913Z,10.23
2022-11-20T10:09:21.414Z,9.53
2022-11-20T10:12:07.792Z,8.50
2022-11-20T10:14:56.261Z,8.43
2022-11-20T10:17:54.392Z,7.47
2022-11-20T10:20:38.284Z,7.93
2022-11-20T10:23:36.001Z,8.37
2022-11-20T10:26:18.695Z,8.37
2022-11-20T10:29:12.761Z,8.33
2022-11-20T10:31:46.815Z,7.63
2022-11-20T10:34:25.079Z,7.30
2022-11-20T10:37:04.774Z,6.93
2022-11-20T10:39:44.986Z,6.33
2022-11-20T10:42:21.898Z,6.70
2022-11-20T10:45:06.155Z,5.77
2022-11-20T10:47:37.878Z,5.40
2022-11-20T10:50:16.468Z,6.23
2022-11-20T10:53:01.457Z,6.17
2022-11-20T10:55:43.308Z,5.90
2022-11-20T10:58:24.768Z,5.33
2022-11-20T11:00:53.501Z,6.00
2022-11-20T11:03:31.467Z,7.03
2022-11-20T11:06:11.523Z,6.80
2022-11-20T11:08:42.292Z,8.57
2022-11-20T11:11:25.436Z,9.00
2022-11-20T11:13:55.383Z,10.20
2022-11-20T11:16:28.416Z,10.63
2022-11-20T11:19:09.632Z,9.07
2022-11-20T11:21:42.743Z,8.97
2022-11-20T11:24:41.587Z,7.20
2022-11-20T11:27:18.944Z,6.30
2022-11-20T11:29:48.996Z,9.77
2022-11-20T11:32:23.161Z,7.73
2022-11-20T11:35:05.613Z,7.10
2022-11-20T11:37:41.231Z,7.10
2022-11-20T11:40:29.831Z,7.27
2022-11-20T11:43:04.511Z,7.33
2022-11-20T11:45:34.597Z,7.50
2022-11-20T11:48:12.741Z,7.10
2022-11-20T11:50:52.995Z,7.73
2022-11-20T11:53:27.158Z,7.33
2022-11-20T11:56:06.320Z,8.53
2022-11-20T11:58:46.984Z,7.97
2022-11-20T12:01:34.304Z,7.30
2022-11-20T12:04:16.085Z,8.07
2022-11-20T12:06:54.209Z,7.73
2022-11-20T12:09:37.031Z,8.10
2022-11-20T12:12:12.951Z,7.10
2022-11-20T12:14:45.241Z,8.17
2022-11-20T12:17:16.279Z,35.93
2022-11-20T12:19:45.220Z,14.53
2022-11-20T12:22:31.577Z,10.10
2022-11-20T12:25:10.274Z,9.23
2022-11-20T12:28:26.500Z,8.73
2022-11-20T12:31:29.850Z,10.23
2022-11-20T12:34:26.412Z,13.07
2022-11-20T12:37:07.711Z,10.80
2022-11-20T12:39:50.963Z,9.87
2022-11-20T12:43:10.905Z,8.83
2022-11-20T12:46:11.000Z,8.97
2022-11-20T12:49:04.810Z,9.33
2022-11-20T12:51:54.071Z,8.33
2022-11-20T12:54:57.099Z,8.93
2022-11-20T12:57:40.104Z,9.33
2022-11-20T13:00:17.853Z,7.03
2022-11-20T13:03:24.382Z,6.80
2022-11-20T13:06:14.425Z,7.03
2022-11-20T13:08:49.543Z,7.13
2022-11-20T13:11:31.059Z,6.57
2022-11-20T13:14:26.918Z,7.00
2022-11-20T13:17:07.689Z,6.70
2022-11-20T13:19:37.365Z,6.53
2022-11-20T13:22:06.149Z,6.10
2022-11-20T13:24:36.109Z,6.80
2022-11-20T13:27:24.176Z,6.67
2022-11-20T13:30:18.180Z,5.77
2022-11-20T13:32:57.118Z,5.43
2022-11-20T13:35:34.198Z,6.13
2022-11-20T13:38:07.706Z,5.90
2022-11-20T13:40:40.216Z,6.20
2022-11-20T13:43:25.502Z,6.90
2022-11-20T13:46:00.585Z,5.93
2022-11-20T13:48:34.554Z,6.00
2022-11-20T13:51:26.581Z,6.23
2022-11-20T13:54:40.286Z,6.57
2022-11-20T13:57:36.007Z,6.20
2022-11-20T14:00:16.915Z,6.00
2022-11-20T14:02:49.043Z,9.97
2022-11-20T14:05:24.698Z,6.57
2022-11-20T14:07:56.212Z,7.30
2022-11-20T14:10:32.095Z,6.43
2022-11-20T14:13:12.239Z,7.00
2022-11-20T14:15:45.291Z,6.97
2022-11-20T14:18:21.291Z,6.83
2022-11-20T14:20:50.570Z,7.50
2022-11-20T14:23:30.213Z,9.27
2022-11-20T14:25:59.820Z,7.67
2022-11-20T14:28:33.221Z,6.90
2022-11-20T14:31:03.881Z,7.60
2022-11-20T14:33:37.277Z,10.10
2022-11-20T14:36:06.792Z,7.93
2022-11-20T14:38:36.853Z,7.60
2022-11-20T14:41:11.709Z,7.20
2022-11-20T14:43:41.488Z,7.90
2022-11-20T14:46:14.693Z,7.47
2022-11-20T14:48:49.248Z,7.43
2022-11-20T14:51:36.290Z,7.20
2022-11-20T14:54:13.495Z,7.40
2022-11-20T14:56:43.037Z,7.83
2022-11-20T14:59:12.286Z,8.10
2022-11-20T15:01:56.175Z,8.20
2022-11-20T15:04:25.995Z,7.73
2022-11-20T15:06:58.433Z,7.77
2022-11-20T15:09:28.489Z,7.53
2022-11-20T15:12:01.168Z,6.97
2022-11-20T15:14:36.510Z,8.00
2022-11-20T15:17:14.310Z,8.00
2022-11-20T15:19:43.319Z,7.90
2022-11-20T15:22:17.189Z,7.87
2022-11-20T15:24:46.002Z,8.87
2022-11-20T15:27:14.991Z,8.63
2022-11-20T15:29:44.948Z,8.67
2022-11-20T15:32:15.187Z,7.63
2022-11-20T15:34:44.839Z,8.53
2022-11-20T15:37:14.645Z,8.90
2022-11-20T15:39:43.642Z,8.00
2022-11-20T15:42:13.210Z,7.73
2022-11-20T15:44:43.028Z,8.37
2022-11-20T15:47:12.766Z,7.97
2022-11-20T15:49:43.201Z,8.53
2022-11-20T15:52:14.096Z,9.17
2022-11-20T15:54:43.513Z,9.20
2022-11-20T15:57:14.458Z,8.77
2022-11-20T15:59:43.515Z,9.03
2022-11-20T16:02:18.908Z,8.80
2022-11-20T16:04:49.636Z,8.47
2022-11-20T16:07:19.205Z,8.77
2022-11-20T16:09:49.543Z,8.57
2022-11-20T16:12:33.064Z,8.40
2022-11-20T16:15:30.710Z,7.93
2022-11-20T16:18:00.972Z,8.17
2022-11-20T16:20:31.800Z,8.07
2022-11-20T16:23:01.158Z,6.70
2022-11-20T16:25:30.347Z,6.90
2022-11-20T16:28:00.676Z,7.23
2022-11-20T16:30:29.745Z,7.57
2022-11-20T16:32:58.605Z,7.53
2022-11-20T16:35:30.950Z,7.77
2022-11-20T16:38:01.784Z,8.00
2022-11-20T16:40:31.841Z,8.40
2022-11-20T16:43:12.268Z,8.03
2022-11-20T16:45:45.298Z,8.70
2022-11-20T16:48:18.394Z,8.23
2022-11-20T16:50:55.209Z,8.70
2022-11-20T16:53:24.434Z,8.40
2022-11-20T16:55:53.315Z,8.67
2022-11-20T16:58:23.071Z,8.77
2022-11-20T17:00:52.125Z,8.73
2022-11-20T17:03:24.191Z,8.23
2022-11-20T17:05:54.420Z,9.73
2022-11-20T17:08:23.205Z,9.27
2022-11-20T17:10:51.990Z,10.03
2022-11-20T17:13:20.747Z,9.20
2022-11-20T17:15:49.953Z,9.37
2022-11-20T17:18:18.768Z,11.97
2022-11-20T17:20:54.957Z,12.57
2022-11-20T17:23:23.679Z,10.27
2022-11-20T17:25:52.345Z,11.43
2022-11-20T17:28:21.034Z,10.20
2022-11-20T17:30:49.710Z,9.93
2022-11-20T17:33:18.434Z,9.00
2022-11-20T17:35:47.214Z,10.27
2022-11-20T17:38:17.321Z,11.17
2022-11-20T17:40:46.423Z,9.83
2022-11-20T17:43:15.254Z,11.17
2022-11-20T17:45:45.034Z,10.60
2022-11-20T17:48:13.947Z,10.10
2022-11-20T17:50:42.750Z,10.10
2022-11-20T17:53:11.467Z,9.10
2022-11-20T17:55:58.884Z,11.47
2022-11-20T17:58:29.385Z,9.30
2022-11-20T18:01:05.202Z,10.87
2022-11-20T18:03:33.946Z,9.43
2022-11-20T18:06:11.711Z,9.57
2022-11-20T18:08:41.224Z,9.87
2022-11-20T18:11:18.329Z,10.00
2022-11-20T18:14:07.268Z,10.00
2022-11-20T18:16:39.484Z,9.83
2022-11-20T18:19:08.246Z,8.90
2022-11-20T18:21:37.140Z,9.33
2022-11-20T18:24:07.218Z,10.60
2022-11-20T18:26:42.782Z,9.80
2022-11-20T18:29:15.355Z,9.60
2022-11-20T18:31:44.333Z,10.47
2022-11-20T18:34:14.284Z,10.90
2022-11-20T18:36:45.699Z,10.90
2022-11-20T18:39:16.418Z,10.33
2022-11-20T18:42:05.249Z,10.43
2022-11-20T18:44:55.719Z,10.10
2022-11-20T18:47:29.769Z,9.50
2022-11-20T18:50:01.613Z,9.57
2022-11-20T18:52:35.335Z,10.17
2022-11-20T18:55:07.433Z,9.47
2022-11-20T18:57:39.025Z,9.80
2022-11-20T19:00:10.364Z,9.13
2022-11-20T19:02:42.497Z,10.10
2022-11-20T19:05:12.774Z,8.90
2022-11-20T19:07:42.510Z,8.90
2022-11-20T19:10:11.984Z,9.40
2022-11-20T19:12:43.315Z,8.77
2022-11-20T19:15:12.744Z,9.30
2022-11-20T19:17:41.899Z,9.63
2022-11-20T19:20:12.071Z,10.70
2022-11-20T19:22:40.754Z,10.23
2022-11-20T19:25:10.869Z,9.27
2022-11-20T19:27:39.845Z,9.60
2022-11-20T19:30:12.277Z,9.03
2022-11-20T19:32:42.217Z,8.50
2022-11-20T19:35:11.211Z,8.30
2022-11-20T19:37:40.294Z,9.30
2022-11-20T19:40:10.451Z,8.67
2022-11-20T19:42:39.606Z,10.53
2022-11-20T19:45:11.242Z,9.50
2022-11-20T19:50:29.460Z,11.43
2022-11-20T19:52:59.031Z,10.97
2022-11-20T19:55:28.408Z,12.30
2022-11-20T19:57:58.299Z,11.17
2022-11-20T20:00:32.785Z,11.73
2022-11-20T20:03:02.574Z,12.37
2022-11-20T20:05:32.624Z,12.60
2022-11-20T20:08:01.436Z,11.73
2022-11-20T20:10:30.504Z,12.40
2022-11-20T20:12:59.674Z,13.80
2022-11-20T20:15:30.279Z,16.10
2022-11-20T20:17:59.493Z,12.67
2022-11-20T20:20:28.872Z,13.27
2022-11-20T20:22:57.850Z,12.13
2022-11-20T20:25:26.833Z,12.33
2022-11-20T20:27:55.520Z,11.60
2022-11-20T20:30:24.902Z,11.90
2022-11-20T20:32:56.535Z,11.60
2022-11-20T20:35:25.628Z,11.57
2022-11-20T20:37:54.503Z,12.40
2022-11-20T20:40:23.405Z,13.13
2022-11-20T20:42:52.177Z,12.47
2022-11-20T20:45:20.958Z,12.23
2022-11-20T20:47:49.791Z,11.83
2022-11-20T20:50:20.163Z,11.43
2022-11-20T20:52:49.319Z,13.00
2022-11-20T20:55:18.334Z,11.90
2022-11-20T20:57:47.241Z,12.27
2022-11-20T21:00:17.471Z,16.63
2022-11-20T21:02:46.156Z,12.30
2022-11-20T21:05:15.054Z,12.03
2022-11-20T21:07:59.043Z,11.67
2022-11-20T21:10:28.240Z,11.17
2022-11-20T21:12:57.128Z,13.07
2022-11-20T21:15:26.989Z,12.10
2022-11-20T21:17:55.737Z,12.33
2022-11-20T21:20:41.949Z,12.47
2022-11-20T21:23:12.724Z,11.70
2022-11-20T21:25:43.713Z,12.27
2022-11-20T21:28:17.854Z,11.70
2022-11-20T21:30:50.088Z,13.23
2022-11-20T21:33:18.789Z,13.00
2022-11-20T21:35:47.527Z,11.90
2022-11-20T21:38:17.634Z,11.67
2022-11-20T21:40:46.699Z,12.33
2022-11-20T21:43:15.851Z,12.30
2022-11-20T21:45:44.613Z,13.27
2022-11-20T21:48:13.331Z,12.50
2022-11-20T21:50:42.166Z,13.60
2022-11-20T21:53:10.920Z,13.83
2022-11-20T21:55:41.027Z,13.43
2022-11-20T21:58:09.770Z,13.47
2022-11-20T22:00:38.490Z,13.80
2022-11-20T22:03:07.319Z,14.17
2022-11-20T22:05:36.064Z,14.53
2022-11-20T22:08:04.972Z,14.83
2022-11-20T22:10:33.720Z,15.07
2022-11-20T22:13:17.704Z,14.27
2022-11-20T22:16:00.460Z,14.27
2022-11-20T22:18:29.854Z,13.50
2022-11-20T22:20:58.735Z,14.13
2022-11-20T22:23:27.467Z,14.30
2022-11-20T22:25:56.182Z,14.13
2022-11-20T22:28:26.411Z,14.10
2022-11-20T22:30:59.043Z,14.40
2022-11-20T22:33:29.295Z,15.27
2022-11-20T22:36:10.364Z,14.87
2022-11-20T22:38:40.565Z,14.97
2022-11-20T22:41:11.930Z,15.17
2022-11-20T22:43:43.637Z,15.80
2022-11-20T22:46:14.516Z,15.97
2022-11-20T22:48:45.640Z,15.60
2022-11-20T22:51:16.810Z,15.00
2022-11-20T22:53:46.235Z,15.57
2022-11-20T22:56:16.708Z,16.53
2022-11-20T22:58:49.461Z,16.30
2022-11-20T23:01:20.283Z,16.60
2022-11-20T23:03:51.486Z,16.63
2022-11-20T23:06:22.723Z,17.50
2022-11-20T23:08:52.504Z,16.73
2022-11-20T23:11:24.576Z,15.97
2022-11-20T23:13:58.295Z,15.63
2022-11-20T23:16:29.259Z,16.40
2022-11-20T23:19:00.098Z,14.57
2022-11-20T23:21:29.822Z,14.40
2022-11-20T23:24:00.950Z,16.13
2022-11-20T23:26:31.839Z,11.83
2022-11-20T23:29:02.762Z,13.47
2022-11-20T23:31:33.704Z,13.93
2022-11-20T23:34:02.861Z,13.97
2022-11-20T23:36:32.132Z,12.70
2022-11-20T23:39:00.966Z,13.30
2022-11-20T23:41:29.718Z,13.20
2022-11-20T23:43:58.492Z,12.43
2022-11-20T23:46:28.681Z,12.60
2022-11-20T23:48:57.504Z,12.33
2022-11-20T23:51:26.314Z,11.63
2022-11-20T23:53:54.993Z,12.30
2022-11-20T23:56:23.807Z,12.60
2022-11-20T23:58:52.628Z,13.20
